Time;durP1;ratioP1;P1;durP2;ratioP2;P2;SDS_P1;SDS_P2;PMS_P1;PMS_P2;Temp;Humidity;BMP_temperature;BMP_pressure;BME280_temperature;BME280_humidity;BME280_pressure;Samples;Min_cycle;Max_cycle;Signal;HPM_P1;HPM_P2
2023/07/21 00:00:18;;;;;;;3.10;1.42;;;29.70;83.90;;;;;;5133686;28;20496;-79
2023/07/21 00:02:45;;;;;;;3.45;1.85;;;29.70;83.80;;;;;;5133542;28;20102;-79
2023/07/21 00:05:12;;;;;;;2.90;1.92;;;29.70;83.60;;;;;;5133142;28;20023;-79
2023/07/21 00:07:37;;;;;;;3.78;1.50;;;29.70;83.70;;;;;;5130435;28;20012;-79
2023/07/21 00:10:07;;;;;;;3.05;1.48;;;29.70;83.50;;;;;;5112884;28;20050;-79
2023/07/21 00:12:47;;;;;;;4.63;2.00;;;29.70;83.50;;;;;;5113002;28;20061;-79
2023/07/21 00:15:17;;;;;;;2.92;1.45;;;29.60;83.30;;;;;;5112751;28;20027;-79
2023/07/21 00:17:45;;;;;;;2.95;1.60;;;29.50;83.30;;;;;;5113249;28;20027;-79
2023/07/21 00:20:12;;;;;;;3.42;2.25;;;29.50;83.30;;;;;;5116174;28;20062;-79
2023/07/21 00:22:41;;;;;;;3.13;1.65;;;29.50;83.10;;;;;;5116508;28;20102;-79
2023/07/21 00:25:11;;;;;;;6.35;1.67;;;29.50;82.90;;;;;;5116937;28;20103;-79
2023/07/21 00:27:42;;;;;;;2.85;1.58;;;29.40;82.80;;;;;;5116568;28;20041;-79
2023/07/21 00:30:08;;;;;;;6.25;2.05;;;29.40;82.80;;;;;;5116703;28;20028;-79
2023/07/21 00:32:39;;;;;;;3.70;1.70;;;29.40;83.00;;;;;;5097982;28;20059;-79
2023/07/21 00:35:06;;;;;;;2.55;1.52;;;29.30;83.10;;;;;;5116507;28;20422;-79
2023/07/21 00:37:32;;;;;;;3.13;1.55;;;29.30;83.00;;;;;;5116667;27;20084;-79
2023/07/21 00:39:58;;;;;;;3.70;1.55;;;29.30;83.10;;;;;;5127750;27;20399;-79
2023/07/21 00:42:24;;;;;;;2.53;1.27;;;29.20;83.30;;;;;;5121076;27;20023;-79
2023/07/21 00:44:49;;;;;;;1.98;1.30;;;29.20;83.40;;;;;;5116358;28;20024;-79
2023/07/21 00:47:16;;;;;;;4.60;1.80;;;29.20;83.50;;;;;;5116180;28;20032;-79
2023/07/21 00:49:43;;;;;;;2.95;1.45;;;29.20;83.50;;;;;;5097896;28;20063;-79
2023/07/21 00:52:10;;;;;;;2.75;1.73;;;29.20;83.60;;;;;;5097634;28;20469;-79
2023/07/21 00:54:36;;;;;;;2.45;1.48;;;29.20;83.70;;;;;;5116163;28;20026;-80
2023/07/21 00:57:02;;;;;;;3.53;1.40;;;29.20;83.90;;;;;;5116486;28;20077;-79
2023/07/21 00:59:29;;;;;;;3.47;1.92;;;29.20;84.00;;;;;;5097279;28;20063;-79
2023/07/21 01:01:56;;;;;;;5.68;1.70;;;29.20;84.30;;;;;;5115752;28;20028;-79
2023/07/21 01:04:23;;;;;;;7.40;2.35;;;29.20;84.30;;;;;;5115675;28;20016;-79
2023/07/21 01:06:49;;;;;;;4.40;1.92;;;29.20;84.80;;;;;;5126510;27;20027;-79
2023/07/21 01:09:16;;;;;;;3.97;1.90;;;29.20;84.60;;;;;;5136618;27;20035;-79
2023/07/21 01:11:42;;;;;;;4.20;1.75;;;29.20;84.50;;;;;;5133005;27;20036;-79
2023/07/21 01:14:09;;;;;;;4.20;1.58;;;29.10;84.60;;;;;;5115659;28;20030;-79
2023/07/21 01:16:43;;;;;;;5.53;2.10;;;29.10;84.50;;;;;;5097340;28;20067;-79
2023/07/21 01:19:15;;;;;;;5.57;1.60;;;29.10;84.30;;;;;;5115734;28;20031;-79
2023/07/21 01:21:51;;;;;;;2.50;1.63;;;29.10;84.40;;;;;;5115596;28;20453;-79
2023/07/21 01:24:37;;;;;;;3.22;1.52;;;29.00;84.40;;;;;;5115436;28;20028;-79
2023/07/21 01:27:07;;;;;;;3.58;1.42;;;29.10;84.40;;;;;;5115484;28;20031;-78
2023/07/21 01:29:35;;;;;;;3.10;1.98;;;29.10;84.10;;;;;;5115109;28;20032;-79
2023/07/21 01:32:06;;;;;;;4.07;1.55;;;29.10;84.10;;;;;;5119667;27;20110;-79
2023/07/21 01:34:33;;;;;;;3.53;1.83;;;29.10;83.80;;;;;;5116960;27;20031;-78
2023/07/21 01:37:01;;;;;;;3.63;1.95;;;29.10;83.50;;;;;;5135217;27;20023;-79
2023/07/21 01:39:28;;;;;;;3.67;2.40;;;29.10;83.30;;;;;;5134765;27;20035;-79
2023/07/21 01:41:55;;;;;;;4.18;2.03;;;29.10;82.90;;;;;;5134978;27;20039;-79
2023/07/21 01:44:23;;;;;;;3.92;1.50;;;29.10;83.00;;;;;;5114872;28;20026;-79
2023/07/21 01:46:51;;;;;;;4.30;1.92;;;29.10;82.70;;;;;;5114790;28;20023;-79
2023/07/21 01:49:17;;;;;;;2.78;1.92;;;29.00;82.60;;;;;;5114708;27;20027;-79
2023/07/21 01:51:44;;;;;;;4.82;1.98;;;29.00;82.60;;;;;;5114868;27;20031;-79
2023/07/21 01:54:19;;;;;;;5.57;2.20;;;29.00;82.50;;;;;;5101394;28;20110;-80
2023/07/21 01:56:54;;;;;;;4.35;1.77;;;29.00;82.40;;;;;;5096822;28;20477;-79
2023/07/21 01:59:22;;;;;;;4.35;2.15;;;28.90;82.30;;;;;;5114404;28;20043;-79
2023/07/21 02:01:50;;;;;;;3.90;1.92;;;28.90;82.10;;;;;;5114726;28;20106;-79
2023/07/21 02:04:17;;;;;;;6.78;2.15;;;28.90;81.90;;;;;;5128605;27;20072;-79
2023/07/21 02:06:42;;;;;;;5.97;2.25;;;28.90;81.80;;;;;;5116937;27;20019;-80
2023/07/21 02:09:08;;;;;;;3.38;1.88;;;28.90;81.60;;;;;;5135277;27;20077;-79
2023/07/21 02:11:34;;;;;;;3.17;2.33;;;28.90;81.60;;;;;;5134793;27;20058;-79
2023/07/21 02:13:59;;;;;;;2.92;1.90;;;28.90;81.30;;;;;;5122320;27;20023;-79
2023/07/21 02:16:26;;;;;;;3.97;2.33;;;28.90;81.30;;;;;;5114011;28;20038;-79
2023/07/21 02:18:53;;;;;;;4.32;2.47;;;28.90;81.20;;;;;;5114090;28;20027;-79
2023/07/21 02:21:18;;;;;;;4.43;2.53;;;28.80;81.10;;;;;;5113781;27;20029;-79
2023/07/21 02:23:44;;;;;;;4.35;2.20;;;28.80;81.00;;;;;;5114211;28;20466;-79
2023/07/21 02:26:10;;;;;;;4.72;2.10;;;28.80;80.80;;;;;;5114312;28;20030;-79
2023/07/21 02:28:35;;;;;;;4.22;2.88;;;28.80;80.60;;;;;;5114450;28;20059;-79
2023/07/21 02:31:04;;;;;;;4.22;2.53;;;28.70;80.20;;;;;;5114518;28;20023;-78
2023/07/21 02:33:33;;;;;;;2.85;2.00;;;28.70;80.30;;;;;;5120277;27;20062;-79
2023/07/21 02:36:04;;;;;;;2.85;2.00;;;28.70;80.10;;;;;;5134732;27;20381;-78
2023/07/21 02:38:30;;;;;;;4.70;2.00;;;28.70;80.10;;;;;;5134752;27;20035;-79
2023/07/21 02:41:04;;;;;;;3.03;2.40;;;28.70;79.90;;;;;;5133984;27;20034;-79
2023/07/21 02:43:32;;;;;;;4.88;2.58;;;28.60;79.20;;;;;;5128228;27;20035;-79
2023/07/21 02:45:58;;;;;;;3.05;2.20;;;28.60;79.50;;;;;;5113880;28;20097;-78
2023/07/21 02:48:24;;;;;;;3.35;2.35;;;28.60;79.40;;;;;;5113736;28;20027;-79
2023/07/21 02:50:52;;;;;;;5.57;2.83;;;28.60;79.10;;;;;;5113532;28;20026;-79
2023/07/21 02:53:19;;;;;;;4.22;2.30;;;28.50;78.80;;;;;;5095433;28;20036;-78
2023/07/21 02:55:46;;;;;;;4.15;2.50;;;28.50;78.60;;;;;;5113989;28;20081;-79
2023/07/21 03:00:48;;;;;;;5.85;2.95;;;28.50;78.30;;;;;;4952684;26;20508;-81
2023/07/21 03:03:16;;;;;;;2.40;2.00;;;28.50;78.40;;;;;;5091219;28;20032;-81
2023/07/21 03:05:42;;;;;;;3.13;2.17;;;28.40;78.60;;;;;;5093729;28;20020;-81
2023/07/21 03:08:09;;;;;;;4.78;2.17;;;28.40;78.80;;;;;;5093610;28;20033;-81
2023/07/21 03:10:34;;;;;;;2.88;2.10;;;28.40;78.60;;;;;;5093388;28;20107;-81
2023/07/21 03:13:01;;;;;;;3.10;2.42;;;28.40;78.70;;;;;;5093480;28;20048;-81
2023/07/21 03:15:27;;;;;;;5.32;2.97;;;28.40;78.50;;;;;;5093427;28;20035;-81
2023/07/21 03:17:54;;;;;;;4.82;2.20;;;28.40;78.40;;;;;;5093645;28;20442;-81
2023/07/21 03:20:20;;;;;;;3.97;2.40;;;28.40;78.40;;;;;;5093409;28;20039;-81
2023/07/21 03:22:46;;;;;;;4.00;2.47;;;28.40;78.40;;;;;;5108349;28;20118;-81
2023/07/21 03:25:13;;;;;;;2.97;2.67;;;28.40;78.40;;;;;;5111972;28;20020;-81
2023/07/21 03:27:39;;;;;;;7.68;3.10;;;28.40;78.60;;;;;;5093733;28;20025;-81
2023/07/21 03:30:07;;;;;;;2.75;2.30;;;28.30;78.30;;;;;;5093477;28;20061;-81
2023/07/21 03:32:33;;;;;;;3.05;2.00;;;28.30;78.40;;;;;;5093424;28;20028;-81
2023/07/21 03:34:58;;;;;;;7.07;2.40;;;28.30;78.50;;;;;;5092963;28;20500;-81
2023/07/21 03:37:27;;;;;;;5.97;2.20;;;28.20;78.70;;;;;;5093335;28;20028;-81
2023/07/21 03:39:52;;;;;;;4.10;2.40;;;28.20;78.70;;;;;;5093207;28;20450;-81
2023/07/21 03:42:18;;;;;;;4.35;2.33;;;28.10;78.70;;;;;;5093159;28;20066;-81
2023/07/21 03:44:48;;;;;;;4.50;2.38;;;28.20;78.70;;;;;;5093274;28;20028;-81
2023/07/21 03:47:17;;;;;;;2.90;2.35;;;28.20;78.70;;;;;;5092925;28;20130;-81
2023/07/21 03:49:43;;;;;;;5.70;2.33;;;28.20;78.40;;;;;;5093277;28;20049;-81
2023/07/21 03:52:09;;;;;;;4.55;2.38;;;28.30;78.50;;;;;;5102639;28;20031;-81
2023/07/21 03:54:35;;;;;;;3.05;2.20;;;28.20;78.60;;;;;;5117576;28;20038;-81
2023/07/21 03:57:00;;;;;;;4.03;2.30;;;28.10;78.60;;;;;;5117483;28;20031;-81
2023/07/21 03:59:26;;;;;;;4.35;2.03;;;28.10;78.50;;;;;;5116050;28;20089;-81
2023/07/21 04:01:52;;;;;;;3.13;2.20;;;28.10;78.40;;;;;;5096812;28;20377;-81
2023/07/21 04:04:18;;;;;;;4.53;2.72;;;28.10;78.60;;;;;;5096628;28;20039;-81
2023/07/21 04:06:43;;;;;;;4.13;2.50;;;28.10;78.70;;;;;;5096377;28;20123;-81
2023/07/21 04:09:13;;;;;;;3.67;2.38;;;28.00;78.80;;;;;;5096251;28;20028;-81
2023/07/21 04:11:39;;;;;;;6.28;2.30;;;28.00;78.90;;;;;;5096442;28;20070;-81
2023/07/21 04:14:05;;;;;;;3.65;2.42;;;27.90;78.80;;;;;;5107412;28;20024;-81
2023/07/21 04:16:30;;;;;;;3.97;2.40;;;27.90;78.90;;;;;;5117259;28;20024;-81
2023/07/21 04:18:56;;;;;;;3.05;1.83;;;27.90;78.80;;;;;;5116940;28;20023;-81
2023/07/21 04:21:22;;;;;;;3.70;2.53;;;27.90;78.90;;;;;;5116862;28;20103;-81
2023/07/21 04:23:48;;;;;;;4.47;2.60;;;27.90;78.80;;;;;;5117152;28;20539;-81
2023/07/21 04:26:15;;;;;;;3.92;2.47;;;27.90;78.80;;;;;;5115545;28;20462;-81
2023/07/21 04:28:42;;;;;;;4.75;2.58;;;27.90;78.70;;;;;;5116843;28;20334;-81
2023/07/21 04:31:09;;;;;;;4.60;2.72;;;27.90;78.40;;;;;;5116814;28;20027;-81
2023/07/21 04:33:35;;;;;;;3.97;2.15;;;27.90;78.60;;;;;;5116558;27;20118;-80
2023/07/21 04:36:04;;;;;;;5.55;2.13;;;27.90;78.60;;;;;;5116818;28;20505;-80
2023/07/21 04:38:31;;;;;;;3.97;2.03;;;27.80;78.50;;;;;;5116765;27;20035;-80
2023/07/21 04:40:58;;;;;;;2.90;1.98;;;27.80;78.30;;;;;;5116043;28;20288;-80
2023/07/21 04:43:24;;;;;;;2.58;1.92;;;27.70;78.30;;;;;;5116300;28;20468;-80
2023/07/21 04:45:49;;;;;;;3.72;2.33;;;27.80;78.40;;;;;;5116447;28;20020;-80
2023/07/21 04:48:15;;;;;;;3.10;2.20;;;27.70;78.20;;;;;;5116378;28;20046;-80
2023/07/21 04:50:42;;;;;;;4.22;2.08;;;27.70;78.30;;;;;;5115413;28;20062;-80
2023/07/21 04:53:11;;;;;;;3.88;2.17;;;27.70;78.40;;;;;;5116646;28;20020;-80
2023/07/21 04:55:38;;;;;;;3.88;2.00;;;27.70;78.40;;;;;;5115773;28;20054;-80
2023/07/21 04:58:05;;;;;;;4.80;2.00;;;27.60;78.30;;;;;;5116262;28;20024;-80
2023/07/21 05:00:32;;;;;;;5.32;2.08;;;27.60;78.30;;;;;;5115637;28;20031;-81
2023/07/21 05:02:58;;;;;;;3.20;1.80;;;27.60;78.00;;;;;;5107562;27;20104;-81
2023/07/21 05:05:23;;;;;;;3.03;1.65;;;27.70;78.10;;;;;;5114742;28;20370;-81
2023/07/21 05:07:50;;;;;;;5.07;2.08;;;27.70;77.90;;;;;;5104880;28;20024;-80
2023/07/21 05:10:15;;;;;;;2.55;1.35;;;27.70;77.70;;;;;;5095538;28;20036;-80
2023/07/21 05:12:42;;;;;;;3.92;1.60;;;27.70;77.60;;;;;;5095568;28;20039;-81
2023/07/21 05:15:08;;;;;;;2.75;1.90;;;27.70;77.50;;;;;;5095305;28;20028;-80
2023/07/21 05:17:34;;;;;;;5.93;1.75;;;27.70;77.70;;;;;;5102593;28;20032;-81
2023/07/21 05:20:00;;;;;;;2.28;1.38;;;27.70;77.70;;;;;;5115667;28;20027;-81
2023/07/21 05:22:25;;;;;;;3.22;1.65;;;27.70;77.50;;;;;;5115714;28;20103;-81
2023/07/21 05:24:51;;;;;;;3.47;1.88;;;27.70;77.10;;;;;;5115740;28;20027;-80
2023/07/21 05:27:17;;;;;;;2.72;1.55;;;27.70;77.20;;;;;;5095046;28;20111;-81
2023/07/21 05:29:43;;;;;;;3.08;1.60;;;27.70;77.10;;;;;;5094064;28;20074;-81
2023/07/21 05:32:09;;;;;;;2.13;1.40;;;27.80;77.40;;;;;;5095219;28;20378;-81
2023/07/21 05:34:35;;;;;;;3.42;1.63;;;27.80;77.20;;;;;;5095518;28;20119;-81
2023/07/21 05:37:01;;;;;;;3.25;1.85;;;27.80;77.10;;;;;;5095132;28;20095;-81
2023/07/21 05:39:29;;;;;;;3.00;1.60;;;27.80;77.00;;;;;;5094913;28;20032;-81
2023/07/21 05:41:56;;;;;;;3.40;1.95;;;27.80;77.30;;;;;;5104360;28;20054;-81
2023/07/21 05:44:21;;;;;;;2.35;1.55;;;27.80;76.90;;;;;;5074541;28;20036;-81
2023/07/21 05:46:47;;;;;;;2.70;1.50;;;27.90;76.90;;;;;;5078051;28;20021;-81
2023/07/21 05:49:14;;;;;;;2.38;1.33;;;27.90;76.80;;;;;;5096862;28;20098;-81
2023/07/21 05:51:40;;;;;;;2.97;1.50;;;27.80;76.90;;;;;;5095669;28;20024;-81
2023/07/21 05:54:07;;;;;;;2.80;1.60;;;27.90;76.80;;;;;;5093295;28;20072;-81
2023/07/21 05:56:32;;;;;;;1.90;1.50;;;27.90;76.90;;;;;;5094980;28;20483;-81
2023/07/21 05:58:58;;;;;;;2.55;1.30;;;28.00;76.90;;;;;;5094540;28;20040;-81
2023/07/21 06:01:24;;;;;;;2.42;1.63;;;28.00;76.50;;;;;;5099055;28;20043;-81
2023/07/21 06:03:50;;;;;;;3.30;1.35;;;28.00;76.60;;;;;;5095569;28;20032;-80
2023/07/21 06:06:16;;;;;;;3.50;1.30;;;28.00;76.70;;;;;;5094592;28;20093;-81
2023/07/21 06:08:41;;;;;;;2.50;1.55;;;28.00;76.70;;;;;;5094535;28;20061;-81
2023/07/21 06:11:07;;;;;;;3.15;1.67;;;28.00;76.80;;;;;;5094308;28;20028;-81
2023/07/21 06:13:33;;;;;;;3.08;1.70;;;27.90;76.90;;;;;;5095460;28;20035;-81
2023/07/21 06:15:58;;;;;;;1.90;1.23;;;27.90;77.10;;;;;;5093316;28;20052;-81
2023/07/21 06:18:24;;;;;;;1.52;1.20;;;27.90;77.10;;;;;;5095129;28;20107;-81
2023/07/21 06:20:53;;;;;;;2.25;1.42;;;28.00;77.10;;;;;;5095034;28;20028;-81
2023/07/21 06:23:19;;;;;;;3.88;1.52;;;28.00;77.10;;;;;;5093978;28;20056;-81
2023/07/21 06:25:45;;;;;;;4.53;1.77;;;28.10;77.30;;;;;;5114425;28;20073;-81
2023/07/21 06:28:12;;;;;;;3.08;1.70;;;28.20;77.30;;;;;;5112100;28;20031;-81
2023/07/21 06:30:38;;;;;;;2.53;1.33;;;28.20;76.90;;;;;;5114165;28;20024;-81
2023/07/21 06:33:07;;;;;;;2.53;1.65;;;28.20;77.00;;;;;;5092683;28;20127;-81
2023/07/21 06:35:33;;;;;;;2.38;1.90;;;28.20;77.30;;;;;;5105462;28;20063;-81
2023/07/21 06:38:00;;;;;;;3.38;1.48;;;28.20;77.30;;;;;;5104074;28;20064;-81
2023/07/21 06:40:25;;;;;;;5.15;1.70;;;28.30;77.30;;;;;;5096507;28;20412;-81
2023/07/21 06:42:51;;;;;;;2.65;1.67;;;28.30;77.00;;;;;;5103919;28;20501;-81
2023/07/21 06:45:17;;;;;;;2.95;1.67;;;28.30;76.50;;;;;;5093966;28;20354;-81
2023/07/21 06:47:43;;;;;;;2.05;1.40;;;28.30;76.50;;;;;;5093903;28;20024;-81
2023/07/21 06:50:09;;;;;;;3.78;1.50;;;28.30;76.40;;;;;;5093761;28;20027;-81
2023/07/21 06:52:35;;;;;;;2.33;1.52;;;28.40;76.60;;;;;;5101854;28;20499;-82
2023/07/21 06:55:02;;;;;;;3.47;1.63;;;28.40;76.60;;;;;;5105018;28;20020;-81
2023/07/21 06:57:28;;;;;;;2.97;1.52;;;28.50;75.90;;;;;;5092912;28;20024;-81
2023/07/21 06:59:54;;;;;;;3.35;1.88;;;28.50;75.60;;;;;;5097648;28;20040;-82
2023/07/21 07:02:19;;;;;;;2.70;1.27;;;28.60;75.50;;;;;;5096332;28;20056;-82
2023/07/21 07:04:47;;;;;;;3.33;2.05;;;28.70;75.60;;;;;;5091689;28;20024;-82
2023/07/21 07:07:13;;;;;;;2.05;1.33;;;28.70;75.00;;;;;;5093130;28;20086;-82
2023/07/21 07:09:39;;;;;;;3.30;1.60;;;28.70;75.10;;;;;;5099235;28;20465;-81
2023/07/21 07:12:06;;;;;;;4.70;1.85;;;28.80;74.90;;;;;;5094516;28;20408;-82
2023/07/21 07:14:32;;;;;;;3.30;1.63;;;28.80;74.60;;;;;;5095627;28;20462;-83
2023/07/21 07:16:58;;;;;;;13.98;1.95;;;28.80;75.00;;;;;;5095389;28;20031;-82
2023/07/21 07:19:23;;;;;;;3.75;1.60;;;28.90;75.30;;;;;;5098843;28;20085;-82
2023/07/21 07:21:49;;;;;;;2.70;1.52;;;28.90;75.60;;;;;;5086651;28;20029;-82
2023/07/21 07:24:15;;;;;;;1.70;1.38;;;29.00;75.40;;;;;;5072869;28;20471;-82
2023/07/21 07:26:40;;;;;;;2.00;1.80;;;29.00;75.20;;;;;;5078258;28;20424;-83
2023/07/21 07:29:06;;;;;;;3.00;1.40;;;29.00;74.90;;;;;;5105026;28;20020;-82
2023/07/21 07:31:32;;;;;;;3.92;1.88;;;29.10;75.10;;;;;;5106008;28;20118;-81
2023/07/21 07:33:58;;;;;;;4.45;1.67;;;29.10;75.80;;;;;;5094901;28;20035;-82
2023/07/21 07:36:24;;;;;;;3.85;1.58;;;29.20;75.30;;;;;;5096446;28;20027;-82
2023/07/21 07:38:49;;;;;;;9.75;1.73;;;29.20;74.60;;;;;;5096822;28;20055;-81
2023/07/21 07:41:15;;;;;;;6.45;2.03;;;29.30;74.20;;;;;;5097001;28;20115;-82
2023/07/21 07:43:41;;;;;;;2.72;1.38;;;29.30;74.30;;;;;;5097236;28;20024;-82
2023/07/21 07:46:07;;;;;;;3.17;1.75;;;29.30;73.60;;;;;;5096749;28;20099;-82
2023/07/21 07:48:36;;;;;;;3.78;1.63;;;29.40;73.30;;;;;;5097184;28;20069;-82
2023/07/21 07:51:07;;;;;;;4.00;1.65;;;29.30;73.00;;;;;;5097388;28;20028;-82
2023/07/21 07:53:34;;;;;;;1.90;1.67;;;29.30;73.40;;;;;;5101539;28;20034;-81
2023/07/21 07:56:00;;;;;;;3.63;1.95;;;29.30;73.50;;;;;;5096630;28;20028;-81
2023/07/21 07:58:26;;;;;;;3.50;1.80;;;29.40;73.90;;;;;;5096790;28;20084;-81
2023/07/21 08:00:58;;;;;;;2.58;1.55;;;29.40;73.80;;;;;;5094560;28;20478;-81
2023/07/21 08:03:24;;;;;;;3.35;2.13;;;29.40;73.30;;;;;;5095130;28;20378;-81
2023/07/21 08:05:50;;;;;;;3.42;1.45;;;29.50;73.20;;;;;;5095899;28;20032;-81
2023/07/21 08:08:21;;;;;;;3.83;1.58;;;29.50;73.40;;;;;;5096569;28;20470;-81
2023/07/21 08:10:47;;;;;;;2.80;1.70;;;29.60;73.60;;;;;;5096898;28;20035;-80
2023/07/21 08:13:13;;;;;;;3.47;1.55;;;29.70;73.40;;;;;;5096566;28;20028;-81
2023/07/21 08:15:43;;;;;;;3.22;1.80;;;29.70;73.10;;;;;;5096525;28;20385;-81
2023/07/21 08:18:10;;;;;;;;;;;29.80;73.20;;;;;;5097172;28;20491;-81
2023/07/21 08:20:40;;;;;;;4.30;2.28;;;29.90;73.80;;;;;;5096139;28;19955;-81
2023/07/21 08:23:07;;;;;;;3.28;1.40;;;29.90;73.30;;;;;;5096309;28;20473;-81
2023/07/21 08:25:33;;;;;;;4.95;1.45;;;29.90;73.40;;;;;;5096616;28;20494;-81
2023/07/21 08:28:00;;;;;;;3.80;1.75;;;30.00;73.50;;;;;;5096196;28;20059;-81
2023/07/21 08:30:25;;;;;;;5.57;2.40;;;30.00;73.60;;;;;;5096140;28;20473;-81
2023/07/21 08:32:51;;;;;;;3.65;1.83;;;30.10;73.40;;;;;;5095933;28;20035;-81
2023/07/21 08:35:17;;;;;;;5.78;1.95;;;30.20;73.10;;;;;;5096054;28;20506;-81
2023/07/21 08:37:42;;;;;;;2.67;1.67;;;30.30;73.40;;;;;;5102291;28;20546;-81
2023/07/21 08:40:09;;;;;;;3.13;2.10;;;30.30;73.00;;;;;;5094708;28;20032;-81
2023/07/21 08:42:36;;;;;;;2.40;1.85;;;30.40;72.90;;;;;;5096543;28;20091;-82
2023/07/21 08:45:04;;;;;;;31.50;24.30;;;30.40;72.60;;;;;;5095663;28;20020;-81
2023/07/21 08:47:31;;;;;;;11.30;9.30;;;30.50;72.80;;;;;;5094931;28;20411;-81
2023/07/21 08:49:57;;;;;;;8.25;5.20;;;30.40;72.30;;;;;;5095898;28;20026;-81
2023/07/21 08:52:23;;;;;;;4.05;2.67;;;30.50;71.80;;;;;;5095948;28;20479;-82
2023/07/21 08:54:49;;;;;;;6.95;2.35;;;30.50;72.00;;;;;;5095974;28;20346;-81
2023/07/21 08:57:15;;;;;;;9.60;2.00;;;30.50;71.70;;;;;;5095974;28;20043;-82
2023/07/21 08:59:41;;;;;;;3.47;1.70;;;30.60;71.20;;;;;;5097269;28;20036;-82
2023/07/21 09:02:08;;;;;;;4.30;1.88;;;30.60;70.90;;;;;;5098024;28;20028;-81
2023/07/21 09:04:33;;;;;;;3.80;2.45;;;30.60;71.00;;;;;;5095797;28;20021;-81
2023/07/21 09:07:01;;;;;;;7.72;2.33;;;30.60;70.20;;;;;;5098237;28;20026;-80
2023/07/21 09:09:28;;;;;;;2.95;1.77;;;30.70;71.20;;;;;;5095967;28;20109;-80
2023/07/21 09:12:07;;;;;;;3.15;1.70;;;30.80;71.60;;;;;;5095294;28;20466;-81
2023/07/21 09:14:40;;;;;;;4.03;2.20;;;31.00;71.40;;;;;;5095386;28;20103;-81
2023/07/21 09:17:10;;;;;;;2.80;1.88;;;31.10;71.40;;;;;;5095518;28;20056;-81
2023/07/21 09:19:37;;;;;;;2.47;1.88;;;31.20;70.80;;;;;;5094028;28;20093;-81
2023/07/21 09:22:03;;;;;;;3.83;1.88;;;31.30;70.30;;;;;;5095509;28;20351;-81
2023/07/21 09:24:29;;;;;;;3.63;2.00;;;31.30;70.40;;;;;;5093915;28;20020;-81
2023/07/21 09:27:11;;;;;;;2.97;2.35;;;31.30;70.80;;;;;;5095095;28;20031;-81
2023/07/21 09:29:37;;;;;;;4.68;2.00;;;31.30;70.30;;;;;;5095106;28;20016;-81
2023/07/21 09:32:13;;;;;;;8.55;2.13;;;31.30;71.00;;;;;;5095307;28;20365;-81
2023/07/21 09:34:58;;;;;;;5.43;2.00;;;31.40;70.70;;;;;;5098297;28;20016;-81
2023/07/21 09:37:26;;;;;;;2.15;1.67;;;31.50;70.80;;;;;;5111293;28;20477;-81
2023/07/21 09:39:54;;;;;;;4.45;2.03;;;31.50;70.70;;;;;;5102181;28;20550;-81
2023/07/21 09:42:24;;;;;;;3.80;2.13;;;31.60;70.90;;;;;;5095687;28;20062;-81
2023/07/21 09:44:52;;;;;;;3.78;1.60;;;31.70;70.60;;;;;;5106839;28;20023;-81
2023/07/21 09:47:18;;;;;;;3.20;2.17;;;31.80;70.30;;;;;;5094878;28;20059;-81
2023/07/21 09:49:44;;;;;;;4.68;1.60;;;31.80;69.90;;;;;;5104668;28;20097;-81
2023/07/21 09:52:15;;;;;;;5.03;1.98;;;31.90;70.00;;;;;;5100622;28;20031;-80
2023/07/21 09:54:44;;;;;;;2.78;2.40;;;31.90;69.70;;;;;;5091722;28;20065;-81
2023/07/21 09:57:17;;;;;;;2.67;2.08;;;31.90;69.40;;;;;;5105705;28;20023;-81
2023/07/21 09:59:49;;;;;;;4.68;2.00;;;31.90;69.70;;;;;;5091409;28;20044;-81
2023/07/21 10:02:16;;;;;;;3.45;2.20;;;31.90;69.30;;;;;;5108193;28;20074;-82
2023/07/21 10:04:45;;;;;;;3.83;2.20;;;31.80;69.00;;;;;;5114691;28;20027;-82
2023/07/21 10:07:12;;;;;;;3.13;1.75;;;31.70;68.90;;;;;;5094364;28;20035;-82
2023/07/21 10:09:39;;;;;;;2.50;1.63;;;31.50;68.70;;;;;;5093873;28;20070;-81
2023/07/21 10:12:14;;;;;;;5.35;2.58;;;31.50;69.10;;;;;;5094262;28;20028;-82
2023/07/21 10:14:41;;;;;;;3.72;2.35;;;31.30;69.10;;;;;;5092634;28;20125;-81
2023/07/21 10:17:10;;;;;;;3.55;1.90;;;31.20;69.50;;;;;;5093904;28;20026;-82
2023/07/21 10:19:44;;;;;;;5.67;1.80;;;31.10;69.90;;;;;;5094476;28;20032;-82
2023/07/21 10:22:12;;;;;;;4.10;1.77;;;31.00;70.60;;;;;;5103977;28;20453;-82
2023/07/21 10:24:48;;;;;;;7.95;2.42;;;31.10;71.00;;;;;;5101123;28;20020;-81
2023/07/21 10:27:22;;;;;;;4.00;2.40;;;31.00;72.70;;;;;;5100640;28;20059;-82
2023/07/21 10:29:52;;;;;;;4.63;2.20;;;30.90;72.00;;;;;;5093809;28;20032;-82
2023/07/21 10:32:21;;;;;;;3.30;2.03;;;30.80;72.80;;;;;;5097527;28;20099;-82
2023/07/21 10:34:47;;;;;;;3.30;1.73;;;30.80;72.90;;;;;;5094882;28;20084;-82
2023/07/21 10:37:13;;;;;;;4.32;1.90;;;30.80;72.90;;;;;;5093903;28;20040;-81
2023/07/21 10:39:42;;;;;;;4.50;2.40;;;30.70;72.60;;;;;;5114446;28;20027;-82
2023/07/21 10:42:09;;;;;;;2.22;2.03;;;30.60;72.60;;;;;;5105983;28;20449;-80
2023/07/21 10:44:44;;;;;;;3.25;2.33;;;30.60;72.80;;;;;;5093503;28;20021;-80
2023/07/21 10:47:16;;;;;;;3.45;1.92;;;30.60;73.30;;;;;;5093561;28;20019;-81
2023/07/21 10:49:42;;;;;;;4.97;2.30;;;30.50;73.60;;;;;;5093449;28;20027;-80
2023/07/21 10:52:08;;;;;;;3.20;1.90;;;30.50;73.80;;;;;;5093421;28;20028;-80
2023/07/21 10:54:36;;;;;;;4.22;2.45;;;30.50;73.60;;;;;;5093041;28;20485;-80
2023/07/21 10:57:02;;;;;;;2.92;1.90;;;30.40;73.70;;;;;;5093743;28;20494;-80
2023/07/21 10:59:32;;;;;;;3.85;1.95;;;30.40;74.10;;;;;;5092433;28;20044;-81
2023/07/21 11:01:58;;;;;;;2.75;2.17;;;30.40;74.10;;;;;;5092206;28;20024;-80
2023/07/21 11:04:24;;;;;;;4.25;2.58;;;30.30;74.20;;;;;;5093219;28;20016;-80
2023/07/21 11:06:55;;;;;;;7.20;3.03;;;30.20;74.70;;;;;;5092403;28;20024;-80
2023/07/21 11:09:21;;;;;;;2.88;1.90;;;30.20;74.40;;;;;;5093287;28;20024;-81
2023/07/21 11:11:49;;;;;;;6.22;2.25;;;30.20;74.60;;;;;;5091681;28;20032;-80
2023/07/21 11:14:25;;;;;;;4.20;2.08;;;30.10;74.60;;;;;;5092881;28;20020;-81
2023/07/21 11:16:55;;;;;;;3.00;2.42;;;30.10;74.70;;;;;;5092741;28;20039;-80
2023/07/21 11:19:26;;;;;;;5.72;2.20;;;30.10;75.00;;;;;;5091231;28;20491;-80
2023/07/21 11:21:53;;;;;;;6.03;2.25;;;30.00;75.40;;;;;;5092553;28;20366;-80
2023/07/21 11:24:28;;;;;;;2.33;1.80;;;29.90;75.40;;;;;;5093006;28;20093;-80
2023/07/21 11:26:56;;;;;;;3.65;2.45;;;29.90;75.60;;;;;;5092846;28;20021;-80
2023/07/21 11:29:24;;;;;;;2.80;2.00;;;29.90;75.70;;;;;;5092773;28;20032;-81
2023/07/21 11:31:50;;;;;;;5.30;2.38;;;29.90;76.00;;;;;;5092486;28;20020;-81
2023/07/21 11:34:20;;;;;;;9.63;2.40;;;29.90;76.10;;;;;;5092482;28;20164;-80
2023/07/21 11:36:49;;;;;;;6.30;2.15;;;29.90;76.20;;;;;;5092480;28;20020;-80
2023/07/21 11:39:19;;;;;;;2.63;1.93;;;29.80;76.50;;;;;;5091165;28;20024;-81
2023/07/21 11:41:53;;;;;;;4.55;2.75;;;29.80;76.40;;;;;;5092257;28;20020;-81
2023/07/21 11:44:26;;;;;;;4.45;2.80;;;29.80;76.70;;;;;;5092606;28;20493;-80
2023/07/21 11:47:09;;;;;;;6.07;2.33;;;29.70;76.50;;;;;;5092552;28;20161;-81
2023/07/21 11:49:43;;;;;;;7.28;2.45;;;29.70;76.40;;;;;;5093578;28;20022;-81
2023/07/21 11:52:10;;;;;;;4.32;2.55;;;29.70;77.10;;;;;;5082313;28;20024;-81
2023/07/21 11:54:38;;;;;;;16.13;2.80;;;29.60;77.70;;;;;;5094288;28;20035;-81
2023/07/21 11:57:04;;;;;;;14.23;3.85;;;28.80;75.00;;;;;;5094568;28;21136;-81
2023/07/21 11:59:30;;;;;;;6.03;3.17;;;28.00;76.90;;;;;;5105782;28;20047;-81
2023/07/21 12:01:56;;;;;;;8.38;3.17;;;26.50;80.30;;;;;;5103355;28;20031;-81
2023/07/21 12:04:23;;;;;;;7.28;2.50;;;26.00;82.10;;;;;;5102813;28;20047;-82
2023/07/21 12:06:51;;;;;;;8.05;2.83;;;25.40;83.30;;;;;;5097017;28;20032;-82
2023/07/21 12:09:17;;;;;;;5.50;2.50;;;;;;;;;;5094190;28;20032;-81
2023/07/21 12:11:45;;;;;;;7.25;2.00;;;24.10;85.80;;;;;;5105339;28;20434;-82
2023/07/21 12:14:11;;;;;;;10.80;3.08;;;24.00;88.10;;;;;;5113108;28;20031;-82
2023/07/21 12:16:37;;;;;;;7.43;3.20;;;24.00;88.50;;;;;;5116090;28;20024;-83
2023/07/21 12:19:03;;;;;;;6.75;2.38;;;23.70;88.90;;;;;;5117005;27;20476;-82
2023/07/21 12:21:30;;;;;;;8.18;2.70;;;23.70;89.80;;;;;;5096905;28;20342;-86
2023/07/21 12:23:57;;;;;;;3.45;1.88;;;23.80;89.50;;;;;;5111294;28;20050;-82
2023/07/21 12:26:23;;;;;;;6.22;2.63;;;23.90;89.70;;;;;;5113945;28;20016;-82
2023/07/21 12:28:52;;;;;;;3.75;2.15;;;23.90;89.40;;;;;;5116816;28;20039;-82
2023/07/21 12:31:18;;;;;;;4.22;2.35;;;23.90;89.70;;;;;;5116816;28;20023;-82
2023/07/21 12:33:45;;;;;;;3.75;2.03;;;24.00;89.90;;;;;;5114228;28;20038;-82
2023/07/21 12:36:12;;;;;;;6.88;2.38;;;24.20;89.90;;;;;;5105322;28;20378;-82
2023/07/21 12:38:38;;;;;;;3.92;2.05;;;24.30;90.30;;;;;;5097077;28;20111;-82
2023/07/21 12:41:04;;;;;;;4.18;2.10;;;24.60;90.20;;;;;;5099972;28;20412;-81
2023/07/21 12:43:30;;;;;;;3.35;1.77;;;24.90;88.60;;;;;;5091423;28;20126;-82
2023/07/21 12:45:56;;;;;;;3.80;1.35;;;25.20;86.50;;;;;;5092967;28;20030;-82
2023/07/21 12:48:22;;;;;;;4.47;1.70;;;25.20;86.10;;;;;;5094174;28;20024;-82
2023/07/21 12:50:47;;;;;;;2.80;1.48;;;25.50;85.90;;;;;;5094675;28;20083;-82